Time;durP1;ratioP1;P1;durP2;ratioP2;P2;SDS_P1;SDS_P2;PMS_P1;PMS_P2;Temp;Humidity;BMP_temperature;BMP_pressure;BME280_temperature;BME280_humidity;BME280_pressure;Samples;Min_cycle;Max_cycle;Signal;HPM_P1;HPM_P2
2022/10/27 00:02:33;;;;;;;1.95;1.00;;;;;;;-3.89;55.82;98117.75;6320743;28;20422;-64
2022/10/27 00:05:38;;;;;;;1.67;1.20;;;;;;;-3.90;55.78;98126.31;6319198;28;20426;-63
2022/10/27 00:08:40;;;;;;;1.00;0.80;;;;;;;-3.97;56.35;98125.38;6320547;28;20135;-63
2022/10/27 00:11:47;;;;;;;1.35;1.02;;;;;;;-4.11;56.65;98122.63;6320291;28;20044;-64
2022/10/27 00:14:53;;;;;;;1.15;1.05;;;;;;;-4.13;56.95;98133.75;6320432;28;20410;-63
2022/10/27 00:17:54;;;;;;;0.98;0.90;;;;;;;-4.12;56.60;98136.31;6319645;28;20418;-64
2022/10/27 00:21:04;;;;;;;1.52;1.00;;;;;;;-4.19;56.88;98142.25;6322295;28;20507;-63
2022/10/27 00:24:09;;;;;;;1.52;0.95;;;;;;;-4.29;57.14;98125.81;6325428;28;20440;-62
2022/10/27 00:27:13;;;;;;;2.20;0.90;;;;;;;-4.36;57.67;98141.09;6325377;28;20035;-62
2022/10/27 00:30:14;;;;;;;1.50;1.15;;;;;;;-4.49;57.71;98144.38;6325172;28;20043;-63
2022/10/27 00:33:24;;;;;;;1.75;1.20;;;;;;;-4.58;57.61;98140.81;6325206;28;20040;-64
2022/10/27 00:36:28;;;;;;;1.55;1.20;;;;;;;-4.67;57.78;98145.81;6325093;28;20422;-63
2022/10/27 00:39:32;;;;;;;1.67;0.95;;;;;;;-4.70;58.18;98145.75;6325021;28;20056;-63
2022/10/27 00:42:33;;;;;;;;;;;;;;;-4.74;57.82;98154.25;6325513;28;20052;-64
2022/10/27 00:45:36;;;;;;;3.05;1.38;;;;;;;-4.88;58.34;98145.47;6324452;28;19945;-64
2022/10/27 00:48:43;;;;;;;5.80;1.70;;;;;;;-4.84;58.49;98152.34;6324472;28;20048;-63
2022/10/27 00:51:54;;;;;;;2.33;1.83;;;;;;;-4.89;58.48;98157.44;6324743;28;20044;-64
2022/10/27 00:55:00;;;;;;;4.18;1.80;;;;;;;-4.97;58.27;98167.56;6324373;28;20044;-64
2022/10/27 00:58:13;;;;;;;4.28;1.88;;;;;;;-4.79;58.05;98166.13;6324475;28;20418;-64
2022/10/27 01:01:15;;;;;;;2.35;1.45;;;;;;;-4.84;58.12;98162.63;6324083;28;20048;-64
2022/10/27 01:04:33;;;;;;;3.22;1.42;;;;;;;-4.96;58.17;98161.59;6324235;28;20040;-63
2022/10/27 01:07:39;;;;;;;6.25;1.55;;;;;;;-5.12;58.60;98177.56;6323983;28;20036;-64
2022/10/27 01:10:41;;;;;;;4.55;1.50;;;;;;;-5.20;58.64;98181.69;6323520;28;20530;-63
2022/10/27 01:13:45;;;;;;;1.77;1.58;;;;;;;-5.34;59.26;98176.31;6324153;28;20050;-64
2022/10/27 01:17:10;;;;;;;1.90;1.17;;;;;;;-5.46;59.95;98182.09;6323738;28;20067;-63
2022/10/27 01:20:39;;;;;;;2.63;1.48;;;;;;;-5.57;60.18;98182.72;6323958;28;20048;-64
2022/10/27 01:23:51;;;;;;;3.20;1.60;;;;;;;-5.58;60.34;98191.22;6323488;28;20452;-65
2022/10/27 01:27:01;;;;;;;;;;;;;;;-5.58;59.99;98197.22;6324235;28;20051;-64
2022/10/27 01:30:12;;;;;;;3.78;1.85;;;;;;;-5.68;60.62;98196.16;6323674;28;19954;-64
2022/10/27 01:33:24;;;;;;;3.70;1.90;;;;;;;-5.74;60.79;98192.63;6322503;28;20051;-63
2022/10/27 01:36:30;;;;;;;4.50;1.63;;;;;;;-5.82;60.24;98196.72;6323409;28;20173;-65
2022/10/27 01:39:41;;;;;;;6.75;1.95;;;;;;;-5.89;60.99;98206.84;6323650;28;20044;-63
2022/10/27 01:42:56;;;;;;;6.88;2.13;;;;;;;-6.01;61.32;98206.59;6323521;28;20035;-63
2022/10/27 01:46:05;;;;;;;2.80;1.83;;;;;;;-6.11;61.10;98204.69;6323378;28;20048;-64
2022/10/27 01:49:09;;;;;;;4.22;2.15;;;;;;;-6.18;61.71;98207.94;6323456;28;20589;-64
2022/10/27 01:52:38;;;;;;;4.10;1.70;;;;;;;-6.02;62.13;98215.13;6323057;28;20575;-64
2022/10/27 01:56:00;;;;;;;3.20;2.08;;;;;;;-5.98;61.62;98211.78;6322790;28;20039;-64
2022/10/27 01:59:39;;;;;;;2.22;1.50;;;;;;;-5.92;62.09;98214.44;6322901;28;20553;-63
2022/10/27 02:03:07;;;;;;;1.90;1.40;;;;;;;-5.90;61.61;98215.34;6323033;28;20040;-63
2022/10/27 02:06:23;;;;;;;2.67;1.48;;;;;;;-5.87;61.78;98214.56;6308809;28;20056;-64
2022/10/27 02:10:07;;;;;;;1.85;1.13;;;;;;;-5.71;61.13;98215.75;6322535;28;20529;-64
2022/10/27 02:13:11;;;;;;;2.33;1.30;;;;;;;-5.68;61.19;98203.88;6319960;28;20052;-63
2022/10/27 02:16:26;;;;;;;1.88;1.08;;;;;;;-5.59;60.57;98220.28;6322153;28;20054;-63
2022/10/27 02:19:53;;;;;;;3.17;1.10;;;;;;;-5.55;60.60;98217.78;6322197;28;20131;-64
2022/10/27 02:22:57;;;;;;;1.50;1.20;;;;;;;-5.54;60.72;98204.16;6321802;28;20131;-64
2022/10/27 02:26:10;;;;;;;1.55;1.13;;;;;;;-5.59;60.52;98221.13;6322403;28;20079;-64
2022/10/27 02:29:31;;;;;;;3.20;1.65;;;;;;;-5.68;60.49;98218.38;6321834;28;20048;-64
2022/10/27 02:32:36;;;;;;;2.80;1.30;;;;;;;-5.82;60.37;98222.38;6322116;28;20043;-63
2022/10/27 02:35:41;;;;;;;3.85;2.03;;;;;;;-5.97;60.94;98213.53;6321071;28;20193;-63
2022/10/27 02:38:45;;;;;;;2.95;1.80;;;;;;;-5.99;60.91;98227.16;6321934;28;20055;-64
2022/10/27 02:41:51;;;;;;;3.55;1.48;;;;;;;-6.01;61.31;98227.09;6322177;28;20044;-64
2022/10/27 02:44:55;;;;;;;4.68;1.65;;;;;;;-5.99;61.28;98230.56;6321521;28;20519;-64
2022/10/27 02:48:01;;;;;;;3.15;1.15;;;;;;;-5.94;61.41;98229.00;6321907;28;20503;-64
2022/10/27 02:51:05;;;;;;;1.95;1.20;;;;;;;-5.87;61.23;98237.63;6321918;28;20040;-63
2022/10/27 02:54:06;;;;;;;2.30;1.27;;;;;;;-5.82;60.34;98242.88;6320742;28;20138;-64
2022/10/27 02:57:08;;;;;;;2.05;1.25;;;;;;;-5.83;60.98;98246.25;6321296;28;20058;-64
2022/10/27 03:00:10;;;;;;;3.95;2.20;;;;;;;-5.78;60.90;98247.22;6320993;28;20044;-64
2022/10/27 03:03:14;;;;;;;3.55;1.50;;;;;;;-5.82;60.66;98243.72;6321306;28;20035;-64
2022/10/27 03:06:21;;;;;;;1.27;1.17;;;;;;;-5.71;60.45;98252.53;6321218;28;20032;-63
2022/10/27 03:09:22;;;;;;;6.03;1.50;;;;;;;-5.71;60.68;98261.91;6321210;28;20078;-63
2022/10/27 03:12:23;;;;;;;3.08;2.05;;;;;;;-5.69;60.23;98265.34;6320653;28;20422;-65
2022/10/27 03:15:24;;;;;;;2.45;1.73;;;;;;;-5.68;60.59;98261.97;6321034;28;20518;-64
2022/10/27 03:18:32;;;;;;;5.15;1.70;;;;;;;-5.64;60.28;98268.88;6321261;28;20511;-64
2022/10/27 03:21:39;;;;;;;4.30;1.77;;;;;;;-5.55;60.27;98271.63;6321168;28;20036;-64
2022/10/27 03:24:45;;;;;;;2.97;1.67;;;;;;;-5.50;60.25;98271.75;6319401;28;20048;-63
2022/10/27 03:27:49;;;;;;;2.10;1.58;;;;;;;-5.44;60.33;98269.31;6320737;28;20078;-64
2022/10/27 03:30:52;;;;;;;2.22;1.20;;;;;;;-5.34;59.90;98280.63;6320486;28;20404;-63
2022/10/27 03:33:59;;;;;;;3.15;1.30;;;;;;;-5.56;59.79;98226.31;6319780;28;20051;-64
2022/10/27 03:37:03;;;;;;;4.35;1.88;;;;;;;-5.17;59.34;98275.84;6320316;28;20047;-64
2022/10/27 03:40:05;;;;;;;2.55;1.52;;;;;;;-4.99;58.80;98279.59;6320311;28;20052;-64
2022/10/27 03:43:12;;;;;;;2.22;1.23;;;;;;;-4.84;58.85;98280.72;6320041;28;20047;-64
2022/10/27 03:46:16;;;;;;;2.95;1.55;;;;;;;-4.72;58.65;98280.13;6320067;28;20387;-64
2022/10/27 03:49:20;;;;;;;3.50;1.58;;;;;;;-4.69;58.61;98291.31;6320423;28;20418;-64
2022/10/27 03:52:21;;;;;;;3.08;1.65;;;;;;;-4.73;58.25;98284.34;6318798;28;20043;-64
2022/10/27 03:55:23;;;;;;;3.15;1.52;;;;;;;-4.70;58.44;98291.25;6319409;28;20056;-65
2022/10/27 03:58:25;;;;;;;2.03;1.52;;;;;;;-4.66;58.04;98296.50;6319718;28;20493;-64
2022/10/27 04:01:34;;;;;;;3.80;1.60;;;;;;;-4.63;58.56;98306.81;6320469;28;20044;-65
2022/10/27 04:04:37;;;;;;;2.88;1.35;;;;;;;-4.56;58.45;98294.94;6319942;28;20036;-64
2022/10/27 04:07:39;;;;;;;4.45;1.65;;;;;;;-4.49;58.48;98304.50;6320049;28;20514;-64
2022/10/27 04:10:44;;;;;;;1.38;1.17;;;;;;;-4.61;58.16;98279.47;6320346;28;20036;-65
2022/10/27 04:13:48;;;;;;;7.60;2.92;;;;;;;-4.33;58.07;98310.75;6320306;28;20503;-63
2022/10/27 04:16:50;;;;;;;6.50;3.17;;;;;;;-4.16;58.13;98324.78;6319798;28;20347;-64
2022/10/27 04:19:51;;;;;;;4.57;2.35;;;;;;;-3.95;57.66;98324.25;6320066;28;20644;-63
2022/10/27 04:22:58;;;;;;;5.45;2.47;;;;;;;-3.66;57.28;98327.25;6320146;28;20036;-63
2022/10/27 04:26:00;;;;;;;4.93;2.33;;;;;;;-3.26;56.68;98327.78;6335834;28;20066;-64
2022/10/27 04:29:07;;;;;;;5.60;2.05;;;;;;;-3.04;56.25;98318.63;6319737;28;20044;-63
2022/10/27 04:32:10;;;;;;;4.03;1.90;;;;;;;-2.78;55.55;98336.97;6318275;28;20052;-64
2022/10/27 04:35:12;;;;;;;3.75;1.83;;;;;;;-2.66;55.18;98330.22;6319662;28;20035;-63
2022/10/27 04:38:13;;;;;;;6.22;1.73;;;;;;;-2.48;55.20;98335.59;6319122;28;20208;-63
2022/10/27 04:41:17;;;;;;;3.50;1.75;;;;;;;-2.41;55.27;98342.50;6319071;28;20048;-63
2022/10/27 04:44:23;;;;;;;2.97;1.67;;;;;;;-2.24;54.63;98344.41;6319358;28;20434;-65
2022/10/27 04:47:29;;;;;;;1.52;1.33;;;;;;;-2.13;54.23;98353.09;6319622;28;20139;-63
2022/10/27 04:50:34;;;;;;;4.47;1.70;;;;;;;-2.04;53.92;98350.59;6319776;28;20040;-64
2022/10/27 04:53:38;;;;;;;2.90;1.77;;;;;;;-2.02;54.16;98346.31;6319026;28;20044;-63
2022/10/27 04:56:42;;;;;;;2.63;0.98;;;;;;;-1.86;53.44;98353.34;6318429;28;20039;-64
2022/10/27 04:59:49;;;;;;;1.63;1.40;;;;;;;-1.57;52.98;98355.28;6319635;28;20040;-63
2022/10/27 05:02:54;;;;;;;2.08;1.02;;;;;;;-1.27;52.98;98364.09;6319321;28;20044;-64
2022/10/27 05:06:00;;;;;;;4.40;1.90;;;;;;;-0.79;51.68;98372.91;6319984;28;20048;-64
2022/10/27 05:09:05;;;;;;;4.53;2.08;;;;;;;-0.09;50.71;98370.53;6324436;28;20136;-64
2022/10/27 05:12:11;;;;;;;2.10;1.73;;;;;;;3.73;44.36;98369.97;6324262;28;20036;-63
2022/10/27 05:15:15;;;;;;;1.73;1.50;;;;;;;8.13;37.13;98365.44;6323995;28;20367;-63
2022/10/27 05:18:22;;;;;;;4.10;2.47;;;;;;;10.59;33.25;98375.91;6323776;28;20052;-63
2022/10/27 05:21:27;;;;;;;4.18;3.20;;;;;;;11.60;30.86;98379.44;6323656;28;20047;-64
2022/10/27 05:24:31;;;;;;;1.58;1.08;;;;;;;12.18;29.56;98369.84;6323906;28;20048;-63
2022/10/27 05:27:33;;;;;;;1.08;0.80;;;;;;;13.42;28.02;98372.44;6323637;28;20048;-64
2022/10/27 05:30:37;;;;;;;1.88;1.13;;;;;;;15.10;26.07;98374.56;6322465;28;20048;-63
2022/10/27 05:33:38;;;;;;;1.55;0.93;;;;;;;16.67;24.37;98378.09;6323201;28;20044;-64
2022/10/27 05:36:40;;;;;;;2.20;1.20;;;;;;;17.38;23.34;98379.56;6323330;28;20052;-65
2022/10/27 05:39:44;;;;;;;1.13;0.77;;;;;;;18.13;22.09;98377.00;6322982;28;20414;-63
2022/10/27 05:42:54;;;;;;;0.98;0.50;;;;;;;18.71;20.73;98378.09;6323298;28;20454;-63
2022/10/27 05:45:58;;;;;;;1.50;0.65;;;;;;;19.09;19.87;98379.75;6323040;28;20097;-64
2022/10/27 05:48:59;;;;;;;2.08;0.73;;;;;;;19.34;19.73;98375.22;6338878;28;20032;-64
2022/10/27 05:52:01;;;;;;;3.10;0.90;;;;;;;20.51;19.02;98375.72;6323122;28;20048;-63
2022/10/27 05:55:03;;;;;;;1.77;0.80;;;;;;;21.12;18.51;98376.97;6322712;28;20055;-64
2022/10/27 05:58:08;;;;;;;1.35;0.50;;;;;;;21.89;17.57;98382.03;6322722;28;20060;-64
2022/10/27 06:01:14;;;;;;;2.38;0.70;;;;;;;21.93;16.74;98383.44;6322264;28;20055;-64
2022/10/27 06:07:56;;;;;;;1.98;1.00;;;;;;;16.30;20.18;98375.19;6322728;28;20040;-63
2022/10/27 06:11:04;;;;;;;2.50;1.00;;;;;;;12.23;24.23;98362.53;6322958;28;20039;-63
2022/10/27 06:14:11;;;;;;;2.38;0.77;;;;;;;9.62;26.92;98341.97;6322534;28;20035;-64
2022/10/27 06:17:15;;;;;;;3.05;0.93;;;;;;;8.44;28.34;98360.09;6320739;28;20051;-63
2022/10/27 06:20:19;;;;;;;1.40;1.00;;;;;;;7.59;29.32;98353.94;6321902;28;20044;-63
2022/10/27 06:23:23;;;;;;;1.48;0.90;;;;;;;7.23;29.93;98360.22;6322545;28;20043;-64
2022/10/27 06:26:29;;;;;;;1.65;1.15;;;;;;;7.39;29.66;98372.00;6322614;28;20044;-64
2022/10/27 06:29:39;;;;;;;1.92;1.10;;;;;;;7.17;29.62;98362.13;6322410;28;20036;-63
2022/10/27 06:32:43;;;;;;;1.38;0.80;;;;;;;7.03;29.95;98359.00;6322296;28;20036;-64
2022/10/27 06:35:48;;;;;;;1.92;1.30;;;;;;;8.07;28.88;98366.47;6321818;28;20032;-63
2022/10/27 06:38:50;;;;;;;5.45;1.15;;;;;;;8.16;27.85;98367.09;6321604;28;20062;-64
2022/10/27 06:41:57;;;;;;;1.13;0.95;;;;;;;8.52;27.97;98368.59;6321965;28;20457;-64
2022/10/27 06:45:03;;;;;;;1.63;1.08;;;;;;;13.76;23.34;98373.31;6321845;28;20427;-64
2022/10/27 06:48:09;;;;;;;1.33;0.98;;;;;;;19.82;18.16;98381.25;6321762;28;20048;-64
2022/10/27 06:51:13;;;;;;;2.38;1.13;;;;;;;23.61;15.08;98382.56;6321167;28;20185;-64
2022/10/27 06:54:14;;;;;;;;;;;;;;;24.82;15.45;98395.94;6321760;28;20090;-64
2022/10/27 06:57:21;;;;;;;0.70;0.45;;;;;;;20.72;17.28;98380.31;6321636;28;19919;-64
2022/10/27 07:00:23;;;;;;;0.75;0.60;;;;;;;17.10;19.57;98375.28;6321618;28;20039;-64
2022/10/27 07:03:24;;;;;;;1.27;0.90;;;;;;;14.16;20.55;98381.72;6321118;28;20055;-64
2022/10/27 07:06:29;;;;;;;1.65;1.23;;;;;;;11.86;22.52;98374.81;6321080;28;20530;-63
2022/10/27 07:09:33;;;;;;;1.30;1.20;;;;;;;10.82;23.43;98374.13;6321468;28;20086;-64
2022/10/27 07:12:37;;;;;;;1.88;1.13;;;;;;;10.32;24.30;98373.47;6321176;28;20491;-63
2022/10/27 07:15:40;;;;;;;2.10;1.50;;;;;;;12.01;22.47;98376.75;6321573;28;20197;-64
2022/10/27 07:18:47;;;;;;;1.40;1.10;;;;;;;11.48;23.27;98380.00;6320879;28;20134;-64
2022/10/27 07:21:51;;;;;;;4.45;2.50;;;;;;;10.37;23.93;98375.06;6321388;28;20079;-64
2022/10/27 07:24:53;;;;;;;3.95;2.88;;;;;;;8.99;25.87;98384.50;6320515;28;20093;-64
2022/10/27 07:27:57;;;;;;;1.48;1.20;;;;;;;8.87;26.25;98379.66;6320962;28;20048;-65
2022/10/27 07:30:58;;;;;;;2.42;1.23;;;;;;;10.15;25.18;98378.50;6319598;28;20058;-65
2022/10/27 07:34:03;;;;;;;0.98;0.90;;;;;;;14.78;21.09;98387.94;6320675;28;20036;-63
2022/10/27 07:37:08;;;;;;;1.15;0.70;;;;;;;19.62;16.97;98385.47;6320680;28;20043;-63
2022/10/27 07:40:18;;;;;;;1.25;0.63;;;;;;;21.66;15.18;98395.59;6320268;28;20112;-63
2022/10/27 07:43:24;;;;;;;2.13;0.70;;;;;;;25.73;13.08;98414.63;6319759;28;20613;-64
2022/10/27 07:46:32;;;;;;;1.08;0.57;;;;;;;28.94;11.75;98405.78;6319944;28;20486;-63
2022/10/27 07:49:38;;;;;;;1.73;0.85;;;;;;;27.40;11.92;98397.91;6320077;28;20052;-64
2022/10/27 07:52:47;;;;;;;1.50;0.90;;;;;;;21.06;14.48;98395.28;6320039;28;20063;-63
2022/10/27 07:55:51;;;;;;;1.55;0.88;;;;;;;16.55;18.32;98385.09;6320405;28;20052;-64
2022/10/27 07:58:55;;;;;;;1.13;0.82;;;;;;;17.19;17.89;98391.47;6318504;28;20060;-64
2022/10/27 08:02:00;;;;;;;1.20;0.90;;;;;;;19.56;16.21;98391.28;6320274;28;20051;-64
2022/10/27 08:05:04;;;;;;;2.20;0.68;;;;;;;21.48;14.91;98395.31;6320087;28;20051;-64
2022/10/27 08:08:08;;;;;;;0.70;0.53;;;;;;;23.79;13.59;98401.53;6319787;28;20135;-64
2022/10/27 08:11:12;;;;;;;0.77;0.68;;;;;;;25.02;12.87;98399.34;6319943;28;20063;-63
2022/10/27 08:14:14;;;;;;;1.13;0.80;;;;;;;26.84;11.63;98401.19;6320094;28;20036;-63
2022/10/27 08:17:18;;;;;;;1.77;0.50;;;;;;;25.98;11.84;98399.47;6320285;28;20048;-65
2022/10/27 08:20:22;;;;;;;0.95;0.60;;;;;;;23.86;13.04;98408.00;6335753;28;20424;-64
2022/10/27 08:23:26;;;;;;;1.27;0.73;;;;;;;25.02;12.45;98402.03;6319719;28;20048;-64
2022/10/27 08:26:28;;;;;;;2.15;0.60;;;;;;;27.80;10.81;98401.63;6320238;28;20036;-63
2022/10/27 08:29:32;;;;;;;0.63;0.60;;;;;;;30.03;9.70;98406.44;6320109;28;20036;-64
2022/10/27 08:32:36;;;;;;;0.80;0.60;;;;;;;30.71;8.91;98405.28;6319959;28;20048;-63
2022/10/27 08:35:40;;;;;;;1.02;0.90;;;;;;;30.85;8.75;98404.44;6319860;28;20040;-64
2022/10/27 08:38:42;;;;;;;0.70;0.50;;;;;;;27.91;9.65;98394.00;6317657;28;20048;-64
2022/10/27 08:41:55;;;;;;;0.60;0.52;;;;;;;22.24;12.46;98392.34;6321899;28;20048;-64
2022/10/27 08:45:15;;;;;;;1.02;0.80;;;;;;;17.99;15.81;98375.34;6324456;28;20054;-63
2022/10/27 08:48:24;;;;;;;0.98;0.70;;;;;;;18.73;14.92;98381.50;6324756;28;20044;-64
2022/10/27 08:51:29;;;;;;;1.98;0.90;;;;;;;18.39;15.21;98369.78;6324087;28;20059;-64
2022/10/27 08:54:34;;;;;;;2.00;0.95;;;;;;;17.10;16.15;98381.47;6322914;28;20064;-65
2022/10/27 08:57:36;;;;;;;1.60;0.95;;;;;;;16.63;16.57;98376.63;6324274;28;20059;-64
2022/10/27 09:00:53;;;;;;;2.35;1.02;;;;;;;17.78;15.95;98372.38;6324359;28;20503;-63
2022/10/27 09:04:15;;;;;;;1.42;1.20;;;;;;;21.22;13.95;98375.25;6323828;28;20182;-64
2022/10/27 09:07:32;;;;;;;3.15;1.67;;;;;;;24.31;11.72;98372.28;6324278;28;20062;-64
2022/10/27 09:10:46;;;;;;;2.70;1.45;;;;;;;25.90;10.96;98387.78;6324104;28;20189;-63
2022/10/27 09:14:17;;;;;;;1.90;1.23;;;;;;;26.08;11.10;98387.72;6324303;28;20491;-64
2022/10/27 09:17:31;;;;;;;1.52;0.55;;;;;;;25.17;10.99;98371.91;6324264;28;20071;-63
2022/10/27 09:20:44;;;;;;;2.05;1.45;;;;;;;24.99;11.31;98371.88;6324234;28;20043;-63
2022/10/27 09:24:01;;;;;;;1.20;0.88;;;;;;;24.57;11.48;98369.75;6324028;28;20052;-63
2022/10/27 09:27:06;;;;;;;1.48;0.85;;;;;;;23.12;12.20;98377.25;6322861;28;20056;-65
2022/10/27 09:30:12;;;;;;;0.95;0.60;;;;;;;22.75;12.31;98364.50;6323929;28;20040;-64
2022/10/27 09:33:27;;;;;;;0.60;0.60;;;;;;;22.59;12.51;98356.16;6322584;28;20040;-63
2022/10/27 09:36:31;;;;;;;1.58;0.98;;;;;;;22.70;12.09;98355.19;6322567;28;20052;-65
2022/10/27 09:39:33;;;;;;;2.20;0.98;;;;;;;21.23;13.12;98355.50;6323268;28;20153;-64
2022/10/27 09:42:37;;;;;;;0.88;0.50;;;;;;;19.87;13.68;98351.50;6321626;28;20056;-64
2022/10/27 09:45:44;;;;;;;1.17;0.95;;;;;;;20.67;14.02;98345.09;6323213;28;20059;-64
2022/10/27 09:48:47;;;;;;;0.85;0.68;;;;;;;22.15;12.99;98350.25;6321407;28;20052;-64
2022/10/27 09:51:58;;;;;;;1.08;0.63;;;;;;;21.39;13.17;98342.56;6323152;28;20069;-64
2022/10/27 09:55:04;;;;;;;3.35;1.27;;;;;;;21.55;13.16;98344.78;6321997;28;20056;-64
2022/10/27 09:58:11;;;;;;;1.45;1.20;;;;;;;21.04;13.58;98338.34;6323144;28;20048;-64
2022/10/27 10:01:20;;;;;;;2.70;1.92;;;;;;;20.53;13.83;98331.03;6322792;28;20040;-63
2022/10/27 10:04:30;;;;;;;1.30;0.93;;;;;;;20.48;13.90;98335.88;6322758;28;20044;-64
2022/10/27 10:07:31;;;;;;;0.98;0.52;;;;;;;20.99;13.53;98332.53;6322451;28;20048;-63
2022/10/27 10:10:36;;;;;;;1.13;0.60;;;;;;;21.14;13.40;98337.56;6322708;28;20044;-64
2022/10/27 10:13:40;;;;;;;0.70;0.55;;;;;;;19.57;14.04;98334.22;6322083;28;20039;-65
2022/10/27 10:16:44;;;;;;;1.00;0.80;;;;;;;18.16;15.16;98334.16;6322397;28;20525;-63
2022/10/27 10:19:50;;;;;;;0.95;0.50;;;;;;;18.63;15.16;98328.00;6321689;28;20044;-64
2022/10/27 10:22:51;;;;;;;0.75;0.75;;;;;;;19.87;14.48;98332.78;6321451;28;20063;-65
2022/10/27 10:25:58;;;;;;;1.88;0.70;;;;;;;20.58;14.12;98326.16;6321965;28;20515;-63
2022/10/27 10:29:26;;;;;;;1.77;0.50;;;;;;;20.53;14.04;98328.34;6322316;28;20094;-64
2022/10/27 10:32:51;;;;;;;1.20;0.68;;;;;;;19.50;14.79;98327.66;6322203;28;20044;-63
2022/10/27 10:35:57;;;;;;;0.90;0.50;;;;;;;19.50;14.69;98325.00;6321986;28;20047;-63
2022/10/27 10:39:02;;;;;;;0.95;0.60;;;;;;;19.79;14.79;98327.22;6322002;28;20043;-63
2022/10/27 10:42:14;;;;;;;1.40;0.85;;;;;;;19.88;14.67;98323.81;6322083;28;20056;-64
2022/10/27 10:45:25;;;;;;;0.90;0.60;;;;;;;20.99;14.13;98329.84;6322192;28;20446;-65
2022/10/27 10:48:57;;;;;;;0.88;0.65;;;;;;;21.33;13.64;98327.00;6321222;28;20407;-63
2022/10/27 10:52:06;;;;;;;0.82;0.75;;;;;;;20.54;14.25;98307.81;6319361;28;20056;-64
2022/10/27 10:55:22;;;;;;;1.45;0.80;;;;;;;18.45;15.33;98316.03;6321825;28;20143;-64
2022/10/27 10:58:29;;;;;;;1.63;0.63;;;;;;;17.23;16.57;98312.31;6321376;28;20047;-64
2022/10/27 11:01:42;;;;;;;1.45;0.90;;;;;;;17.01;17.10;98316.47;6321479;28;20036;-65
2022/10/27 11:04:46;;;;;;;1.67;0.80;;;;;;;17.23;16.73;98315.81;6320885;28;20066;-65
2022/10/27 11:07:50;;;;;;;0.60;0.60;;;;;;;16.63;16.93;98318.16;6321009;28;20066;-64
2022/10/27 11:10:55;;;;;;;0.77;0.63;;;;;;;16.33;17.23;98311.22;6321324;28;20467;-64
2022/10/27 11:14:13;;;;;;;0.90;0.80;;;;;;;15.91;17.67;98300.66;6321138;28;20104;-64
2022/10/27 11:17:18;;;;;;;1.05;0.75;;;;;;;15.52;18.09;98303.97;6319806;28;20461;-64
2022/10/27 11:20:24;;;;;;;1.83;0.70;;;;;;;15.09;18.27;98308.38;6321069;28;20036;-65
2022/10/27 11:23:31;;;;;;;1.55;0.70;;;;;;;14.32;19.13;98305.78;6319472;28;20415;-64
2022/10/27 11:26:42;;;;;;;1.23;0.65;;;;;;;13.59;19.94;98310.72;6320951;28;20159;-64
2022/10/27 11:30:16;;;;;;;0.77;0.68;;;;;;;13.16;20.39;98322.69;6320701;28;20101;-64
2022/10/27 11:33:32;;;;;;;1.50;1.08;;;;;;;12.59;20.95;98323.78;6321018;28;20044;-64
2022/10/27 11:36:48;;;;;;;2.00;1.20;;;;;;;11.74;21.91;98317.34;6320863;28;20050;-64
2022/10/27 11:40:21;;;;;;;2.80;1.63;;;;;;;10.36;23.85;98313.72;6320817;28;20048;-64
2022/10/27 11:43:36;;;;;;;1.90;1.53;;;;;;;9.54;24.58;98316.00;6320418;28;20058;-64
2022/10/27 11:46:46;;;;;;;1.58;1.42;;;;;;;8.45;25.93;98309.34;6320256;28;20084;-65
2022/10/27 11:50:03;;;;;;;1.52;1.15;;;;;;;7.41;27.28;98309.94;6320568;28;20054;-64
2022/10/27 11:53:05;;;;;;;4.25;1.40;;;;;;;6.50;28.76;98311.56;6320583;28;20134;-64
2022/10/27 11:56:18;;;;;;;3.63;2.20;;;;;;;5.87;29.96;98312.22;6318869;28;20044;-64
2022/10/27 11:59:43;;;;;;;3.47;2.17;;;;;;;4.80;31.95;98313.53;6320342;28;20044;-64
2022/10/27 12:03:13;;;;;;;3.50;1.70;;;;;;;4.03;33.50;98309.66;6318838;28;20059;-65
2022/10/27 12:06:29;;;;;;;3.90;1.67;;;;;;;3.19;35.41;98317.78;6319618;28;20052;-64
2022/10/27 12:09:38;;;;;;;4.88;2.10;;;;;;;2.57;36.35;98315.84;6320181;28;20138;-65
2022/10/27 12:12:49;;;;;;;4.35;2.35;;;;;;;2.18;37.90;98324.84;6319829;28;20044;-65
2022/10/27 12:15:58;;;;;;;5.93;3.20;;;;;;;2.08;38.70;98324.06;6320549;28;20058;-64
2022/10/27 12:19:13;;;;;;;4.22;2.08;;;;;;;1.83;39.29;98325.97;6325313;28;20044;-64
2022/10/27 12:22:25;;;;;;;2.85;1.73;;;;;;;1.64;40.14;98327.81;6325151;28;20125;-64
2022/10/27 12:25:41;;;;;;;3.25;2.15;;;;;;;1.18;41.67;98325.47;6324901;28;20054;-64
2022/10/27 12:28:45;;;;;;;2.05;1.50;;;;;;;1.09;42.55;98328.13;6325105;28;20036;-65
2022/10/27 12:32:05;;;;;;;2.90;1.80;;;;;;;0.97;43.48;98338.53;6324932;28;20044;-64
2022/10/27 12:35:18;;;;;;;2.50;1.55;;;;;;;0.71;43.76;98334.28;6324341;28;20040;-64
2022/10/27 12:38:27;;;;;;;4.23;1.80;;;;;;;0.43;44.51;98339.50;6324526;28;20059;-64
2022/10/27 12:41:31;;;;;;;3.85;2.08;;;;;;;0.12;45.41;98340.38;6324575;28;20062;-65
2022/10/27 12:44:51;;;;;;;;;;;;;;;0.07;46.23;98336.94;6324434;28;20051;-65
2022/10/27 12:48:10;;;;;;;3.92;2.20;;;;;;;-0.30;46.47;98342.91;6324904;28;20015;-65
2022/10/27 12:51:31;;;;;;;3.65;2.25;;;;;;;-0.39;47.72;98337.75;6324656;28;20400;-64
2022/10/27 12:54:58;;;;;;;1.73;1.60;;;;;;;-0.69;48.57;98341.09;6324796;28;20078;-64
2022/10/27 12:58:08;;;;;;;2.25;1.60;;;;;;;-0.92;49.33;98341.88;6324626;28;20039;-64
2022/10/27 13:01:15;;;;;;;2.53;1.30;;;;;;;-1.10;50.19;98346.97;6324374;28;20032;-64
2022/10/27 13:04:47;;;;;;;4.03;2.75;;;;;;;-1.29;50.23;98352.88;6324065;28;20040;-65
2022/10/27 13:08:03;;;;;;;4.18;2.60;;;;;;;-1.25;51.29;98352.03;6324123;28;20040;-65
2022/10/27 13:11:39;;;;;;;4.27;1.80;;;;;;;-1.42;51.76;98350.19;6339548;28;20486;-65
2022/10/27 13:15:19;;;;;;;3.78;2.42;;;;;;;-1.62;52.68;98360.38;6324190;28;20036;-65
2022/10/27 13:18:26;;;;;;;7.97;3.28;;;;;;;-1.86;52.92;98355.91;6323729;28;20055;-65
2022/10/27 13:21:33;;;;;;;2.55;1.98;;;;;;;-1.79;53.38;98358.53;6323587;28;20418;-64
2022/10/27 13:25:25;;;;;;;4.57;2.40;;;;;;;-1.78;53.57;98366.31;6323754;28;20408;-64
2022/10/27 13:28:39;;;;;;;3.77;2.37;;;;;;;-1.90;53.96;98361.03;6314096;28;20044;-64
2022/10/27 13:31:45;;;;;;;2.65;2.00;;;;;;;-2.13;54.48;98353.09;6322978;28;20044;-64
2022/10/27 13:35:02;;;;;;;3.22;2.45;;;;;;;-2.11;54.73;98364.31;6322755;28;20204;-64
2022/10/27 13:38:17;;;;;;;2.10;1.67;;;;;;;-2.26;54.91;98360.72;6321242;28;20054;-65
2022/10/27 13:41:47;;;;;;;3.80;2.75;;;;;;;-2.21;55.63;98354.72;6323272;28;20511;-64
2022/10/27 13:44:49;;;;;;;2.55;2.35;;;;;;;-2.50;56.08;98360.47;6323048;28;20044;-64
2022/10/27 13:48:09;;;;;;;5.75;3.40;;;;;;;-2.55;56.63;98352.72;6322957;28;20040;-64
2022/10/27 13:51:39;;;;;;;4.53;3.13;;;;;;;-2.71;57.25;98356.81;6323115;28;20518;-65
2022/10/27 13:55:23;;;;;;;5.07;2.80;;;;;;;-2.74;57.58;98354.19;6322846;28;20046;-63
2022/10/27 13:59:04;;;;;;;3.90;1.90;;;;;;;-2.84;57.73;98342.03;6319672;28;20056;-65
2022/10/27 14:02:22;;;;;;;3.25;2.17;;;;;;;-2.86;58.37;98348.03;6322430;28;20136;-64
2022/10/27 14:05:48;;;;;;;5.47;3.22;;;;;;;-2.71;58.06;98354.22;6338067;28;20039;-65
2022/10/27 14:08:51;;;;;;;5.30;3.47;;;;;;;-3.02;58.47;98347.00;6322497;28;20044;-65
2022/10/27 14:11:57;;;;;;;8.90;4.00;;;;;;;-3.03;58.76;98338.41;6321943;28;20039;-65
2022/10/27 14:15:15;;;;;;;4.80;2.80;;;;;;;-2.96;58.84;98347.06;6322452;28;20059;-64
2022/10/27 14:18:26;;;;;;;3.85;2.25;;;;;;;-3.09;59.14;98345.16;6321651;28;20048;-64
2022/10/27 14:21:30;;;;;;;4.55;3.20;;;;;;;-3.21;58.97;98346.75;6321974;28;20043;-64
2022/10/27 14:24:37;;;;;;;5.30;2.85;;;;;;;-3.14;59.21;98341.66;6336255;28;20095;-64
2022/10/27 14:27:44;;;;;;;3.35;1.65;;;;;;;-2.95;59.07;98348.78;6321870;28;20453;-64
2022/10/27 14:31:06;;;;;;;8.15;1.83;;;;;;;-3.11;59.64;98339.13;6321515;28;20514;-65
2022/10/27 14:34:34;;;;;;;4.47;2.40;;;;;;;-3.21;59.88;98339.00;6321280;28;20143;-64
2022/10/27 14:37:38;;;;;;;3.28;1.88;;;;;;;-3.25;60.12;98342.41;6319790;28;20067;-64
2022/10/27 14:40:40;;;;;;;2.85;2.03;;;;;;;-3.25;60.29;98334.69;6321293;28;20040;-65
2022/10/27 14:43:47;;;;;;;3.38;2.15;;;;;;;-3.39;60.79;98321.63;6321898;28;20055;-65
2022/10/27 14:46:54;;;;;;;2.88;2.30;;;;;;;-3.44;60.73;98328.41;6321811;28;20499;-66
2022/10/27 14:50:09;;;;;;;2.22;1.15;;;;;;;-3.32;60.80;98338.00;6321673;28;20050;-63
2022/10/27 14:53:31;;;;;;;2.58;2.03;;;;;;;-3.41;60.99;98332.75;6321658;28;20539;-64
2022/10/27 14:56:35;;;;;;;4.90;2.33;;;;;;;-3.68;61.88;98339.25;6321532;28;20146;-64
2022/10/27 14:59:44;;;;;;;2.33;1.83;;;;;;;-3.64;61.64;98330.72;6321470;28;20044;-64